Time;durP1;ratioP1;P1;durP2;ratioP2;P2;SDS_P1;SDS_P2;PMS_P1;PMS_P2;Temp;Humidity;BMP_temperature;BMP_pressure;BME280_temperature;BME280_humidity;BME280_pressure;Samples;Min_cycle;Max_cycle;Signal;HPM_P1;HPM_P2
2022/03/18 00:02:17;;;;;;;;;55.75;47.00;;;;;4.03;66.41;101184.63;5111414;28;8842;-73
2022/03/18 00:04:46;;;;;;;;;56.50;49.00;;;;;4.07;66.47;101189.13;5111701;28;9583;-71
2022/03/18 00:07:15;;;;;;;;;53.25;46.25;;;;;4.09;66.48;101184.94;5076855;28;8866;-71
2022/03/18 00:09:43;;;;;;;;;58.50;50.50;;;;;3.95;67.03;101184.22;5111812;28;8850;-71
2022/03/18 00:12:13;;;;;;;;;61.50;47.25;;;;;4.03;65.93;101189.78;5111707;28;8850;-72
2022/03/18 00:14:42;;;;;;;;;59.50;50.00;;;;;3.93;66.76;101190.09;5111634;28;8917;-72
2022/03/18 00:17:12;;;;;;;;;63.25;50.25;;;;;3.78;67.69;101190.16;5093635;28;8865;-72
2022/03/18 00:19:42;;;;;;;;;55.25;46.25;;;;;3.76;67.53;101194.34;5093091;28;8866;-73
2022/03/18 00:22:12;;;;;;;;;45.00;41.00;;;;;3.90;66.75;101186.53;5059208;28;8870;-72
2022/03/18 00:24:41;;;;;;;;;57.75;45.75;;;;;3.91;66.09;101184.84;5060734;28;8830;-71
2022/03/18 00:27:09;;;;;;;;;64.50;50.25;;;;;3.96;66.59;101192.84;5076160;28;8864;-73
2022/03/18 00:29:39;;;;;;;;;47.25;44.25;;;;;3.87;66.47;101182.91;5034972;28;8931;-72
2022/03/18 00:32:08;;;;;;;;;53.75;47.75;;;;;3.84;66.29;101175.91;5111602;28;8865;-72
2022/03/18 00:34:37;;;;;;;;;58.75;50.25;;;;;3.86;66.25;101181.16;5111318;28;8843;-71
2022/03/18 00:37:06;;;;;;;;;67.00;53.50;;;;;3.86;66.62;101186.31;5111499;28;9742;-71
2022/03/18 00:39:36;;;;;;;;;57.75;48.75;;;;;3.78;66.86;101185.91;5111013;28;9560;-71
2022/03/18 00:42:05;;;;;;;;;55.50;49.25;;;;;3.61;67.37;101179.84;5092964;28;8858;-73
2022/03/18 00:44:33;;;;;;;;;64.50;50.25;;;;;3.61;67.92;101181.50;5076356;28;8883;-73
2022/03/18 00:51:58;;;;;;;;;64.50;52.25;;;;;3.67;66.63;101181.88;5075300;28;8865;-73
2022/03/18 00:52:39;;;;;;;;;59.75;47.50;;;;;3.76;66.45;101174.59;5093046;28;8843;-73
2022/03/18 00:55:09;;;;;;;;;55.50;48.75;;;;;3.82;66.07;101179.19;5042712;28;8862;-72
2022/03/18 00:57:38;;;;;;;;;56.75;49.75;;;;;3.83;65.77;101180.97;5110836;28;9602;-73
2022/03/18 01:00:08;;;;;;;;;62.00;49.75;;;;;3.83;65.92;101178.41;5110712;28;8846;-73
2022/03/18 01:02:38;;;;;;;;;52.75;45.75;;;;;3.82;65.36;101177.53;5110446;28;8861;-71
2022/03/18 01:05:07;;;;;;;;;53.25;47.25;;;;;3.72;66.22;101177.81;5058157;28;8838;-73
2022/03/18 01:07:36;;;;;;;;;52.50;44.75;;;;;3.54;66.75;101192.31;5070777;28;9599;-72
2022/03/18 01:10:05;;;;;;;;;49.25;45.00;;;;;3.49;67.03;101184.31;5037847;28;8934;-72
2022/03/18 01:12:34;;;;;;;;;56.25;48.75;;;;;3.44;67.82;101189.25;5070618;28;8853;-71
2022/03/18 01:15:03;;;;;;;;;50.00;45.00;;;;;3.37;68.02;101192.28;5084685;28;10132;-72
2022/03/18 01:17:33;;;;;;;;;57.50;48.25;;;;;3.29;68.21;101186.72;5087488;28;8833;-74
2022/03/18 01:20:03;;;;;;;;;47.50;44.25;;;;;3.27;68.03;101192.56;5070763;28;8877;-74
2022/03/18 01:22:32;;;;;;;;;51.00;43.25;;;;;3.28;67.95;101187.50;5070782;28;8842;-71
2022/03/18 01:25:00;;;;;;;;;46.50;44.00;;;;;3.23;68.22;101194.09;5070638;28;8876;-71
2022/03/18 01:27:29;;;;;;;;;45.25;41.50;;;;;3.26;68.03;101206.28;5087125;28;8854;-72
2022/03/18 01:29:58;;;;;;;;;50.00;42.75;;;;;3.26;67.76;101199.41;5087583;28;8850;-72
2022/03/18 01:32:27;;;;;;;;;49.00;44.75;;;;;3.30;67.83;101200.47;5087546;28;8846;-72
2022/03/18 01:34:55;;;;;;;;;49.75;43.50;;;;;3.30;67.67;101200.47;5087456;28;9567;-72
2022/03/18 01:37:25;;;;;;;;;40.75;35.50;;;;;3.29;67.93;101207.34;5087367;28;8856;-70
2022/03/18 01:39:54;;;;;;;;;41.75;41.50;;;;;3.25;67.95;101200.22;5086140;28;8875;-73
2022/03/18 01:42:23;;;;;;;;;40.75;39.00;;;;;3.19;67.67;101209.31;5070436;28;8873;-72
2022/03/18 01:44:51;;;;;;;;;47.75;43.25;;;;;3.21;67.96;101203.41;5087088;28;8836;-71
2022/03/18 01:47:20;;;;;;;;;42.25;39.75;;;;;3.23;67.53;101208.66;5053474;28;8837;-72
2022/03/18 01:49:49;;;;;;;;;34.25;30.25;;;;;3.17;67.93;101204.06;5087077;28;8945;-72
2022/03/18 01:52:18;;;;;;;;;45.75;39.25;;;;;3.16;68.17;101206.53;5086932;28;8853;-71
2022/03/18 01:54:51;;;;;;;;;46.00;42.75;;;;;3.13;68.40;101204.69;5086846;28;8840;-72
2022/03/18 01:57:21;;;;;;;;;34.00;31.75;;;;;3.15;68.03;101204.78;5080713;28;8941;-72
2022/03/18 01:59:53;;;;;;;;;41.50;38.00;;;;;3.12;68.00;101205.50;5107007;28;8931;-73
2022/03/18 02:02:22;;;;;;;;;43.00;38.25;;;;;3.14;68.26;101214.22;5107252;28;8838;-72
2022/03/18 02:04:51;;;;;;;;;29.00;26.50;;;;;3.16;67.99;101212.59;5056879;28;8827;-72
2022/03/18 02:07:19;;;;;;;;;41.50;37.50;;;;;3.16;68.54;101212.59;5107044;28;8968;-73
2022/03/18 02:09:49;;;;;;;;;32.00;30.25;;;;;3.13;67.83;101213.31;5106992;28;8897;-73
2022/03/18 02:12:18;;;;;;;;;42.75;40.00;;;;;3.17;68.07;101213.47;5124992;27;8866;-73
2022/03/18 02:14:48;;;;;;;;;46.75;40.00;;;;;3.21;67.48;101218.00;5109547;28;9004;-73
2022/03/18 02:17:20;;;;;;;;;38.50;35.25;;;;;3.19;67.77;101222.19;5040463;28;8842;-72
2022/03/18 02:19:49;;;;;;;;;43.00;38.50;;;;;3.20;67.46;101226.56;5091305;28;8854;-73
2022/03/18 02:22:21;;;;;;;;;42.00;38.00;;;;;3.22;67.68;101220.69;5108831;28;8854;-74
2022/03/18 02:24:53;;;;;;;;;42.50;41.25;;;;;3.11;67.60;101219.19;5091267;27;8854;-73
2022/03/18 02:27:22;;;;;;;;;41.25;37.75;;;;;3.19;67.66;101228.22;5109448;28;8873;-71
2022/03/18 02:29:51;;;;;;;;;40.00;37.50;;;;;3.20;67.88;101221.41;5109461;28;8854;-72
2022/03/18 02:32:21;;;;;;;;;39.00;36.50;;;;;3.19;68.10;101222.19;5090628;28;8957;-72
2022/03/18 02:34:50;;;;;;;;;34.75;32.50;;;;;3.21;68.03;101241.19;5109468;28;8846;-71
2022/03/18 02:37:18;;;;;;;;;40.25;39.00;;;;;3.18;67.88;101241.06;5108942;28;9619;-74
2022/03/18 02:39:47;;;;;;;;;41.75;36.25;;;;;3.22;67.85;101243.88;5108921;28;8946;-74
2022/03/18 02:42:17;;;;;;;;;45.25;41.50;;;;;3.25;67.59;101235.41;5108861;28;8862;-72
2022/03/18 02:44:46;;;;;;;;;37.75;36.25;;;;;3.23;67.72;101234.44;5090850;28;8854;-73
2022/03/18 02:47:14;;;;;;;;;41.00;37.25;;;;;3.26;67.54;101248.41;5108789;28;8903;-73
2022/03/18 02:49:43;;;;;;;;;39.75;37.00;;;;;3.31;67.48;101257.28;5066117;28;8876;-73
2022/03/18 02:52:12;;;;;;;;;46.25;42.00;;;;;3.37;67.25;101250.72;5065814;28;8888;-73
2022/03/18 02:54:41;;;;;;;;;47.75;43.25;;;;;3.36;67.40;101251.50;5065997;28;8825;-73
2022/03/18 02:57:09;;;;;;;;;53.50;45.00;;;;;3.29;67.33;101246.00;5048982;28;8960;-72
2022/03/18 02:59:40;;;;;;;;;52.50;45.75;;;;;3.36;67.20;101264.38;5049221;28;8841;-73
2022/03/18 03:02:08;;;;;;;;;55.00;47.75;;;;;3.53;66.10;101262.75;5048984;28;8829;-72
2022/03/18 03:07:58;;;;;;;;;53.00;47.25;;;;;3.58;66.30;101266.47;5049466;28;10103;-71
2022/03/18 03:10:12;;;;;;;;;47.50;43.00;;;;;3.50;66.55;101278.97;5032765;28;8875;-72
2022/03/18 03:12:41;;;;;;;;;49.75;44.75;;;;;3.52;66.28;101277.34;5065808;28;8857;-70
2022/03/18 03:15:11;;;;;;;;;40.25;40.25;;;;;3.61;66.79;101277.88;5032521;28;8849;-73
2022/03/18 03:17:40;;;;;;;;;52.75;46.00;;;;;3.63;65.75;101281.41;5065577;28;8869;-72
2022/03/18 03:20:10;;;;;;;;;44.50;40.50;;;;;3.63;65.54;101280.50;5073743;28;8969;-74
2022/03/18 03:22:38;;;;;;;;;43.75;43.50;;;;;3.62;65.88;101283.91;5073204;28;8846;-72
2022/03/18 03:25:08;;;;;;;;;48.25;41.25;;;;;3.50;65.92;101297.88;5108631;28;8869;-71
2022/03/18 03:27:36;;;;;;;;;57.25;48.00;;;;;3.53;66.04;101296.28;5108511;28;8968;-73
2022/03/18 03:30:08;;;;;;;;;44.50;41.50;;;;;3.58;65.49;101302.59;5108575;28;8846;-71
2022/03/18 03:32:38;;;;;;;;;44.00;40.75;;;;;3.55;65.58;101305.88;5108296;28;8830;-73
2022/03/18 03:35:08;;;;;;;;;54.75;46.00;;;;;3.54;65.27;101300.66;5111766;28;8854;-72
2022/03/18 03:37:37;;;;;;;;;42.25;42.25;;;;;3.61;65.19;101302.75;5112552;28;8850;-73
2022/03/18 03:40:07;;;;;;;;;40.00;36.25;;;;;3.58;65.05;101303.47;5094215;28;8850;-73
2022/03/18 03:42:36;;;;;;;;;51.00;45.50;;;;;3.59;64.64;101313.00;5111808;27;9605;-73
2022/03/18 03:45:05;;;;;;;;;37.25;36.00;;;;;3.59;65.23;101319.84;5097308;27;8851;-72
2022/03/18 03:47:34;;;;;;;;;45.00;41.00;;;;;3.46;65.17;101319.16;5132939;27;8831;-73
2022/03/18 03:50:05;;;;;;;;;38.50;33.75;;;;;3.39;65.60;101313.56;5114796;27;8863;-73
2022/03/18 03:52:34;;;;;;;;;47.75;42.25;;;;;3.23;65.16;101315.28;5132506;27;8824;-74
2022/03/18 03:55:03;;;;;;;;;41.00;36.75;;;;;3.13;66.01;101315.53;5132720;27;8869;-73
2022/03/18 03:57:32;;;;;;;;;37.00;32.50;;;;;3.23;65.24;101324.66;5118145;27;8850;-72
2022/03/18 04:00:01;;;;;;;;;37.00;33.00;;;;;3.23;64.87;101320.44;5112201;28;8950;-74
2022/03/18 04:02:32;;;;;;;;;37.75;37.00;;;;;3.29;64.82;101325.94;5088891;28;8834;-71
2022/03/18 04:05:01;;;;;;;;;46.00;43.00;;;;;3.19;65.07;101330.44;5089168;28;8837;-72
2022/03/18 04:07:31;;;;;;;;;46.50;39.75;;;;;3.19;65.08;101323.59;5072114;28;8842;-72
2022/03/18 04:09:59;;;;;;;;;42.00;40.00;;;;;3.07;64.99;101318.63;5072322;28;8923;-74
2022/03/18 04:12:29;;;;;;;;;48.50;42.75;;;;;3.08;64.70;101327.25;5049871;28;8914;-72
2022/03/18 04:14:57;;;;;;;;;43.50;40.00;;;;;3.10;64.45;101334.28;5071966;28;9555;-71
2022/03/18 04:17:26;;;;;;;;;53.25;42.50;;;;;3.06;64.25;101342.63;5071946;28;8829;-72
2022/03/18 04:19:55;;;;;;;;;44.00;42.50;;;;;3.18;63.16;101341.59;5088810;28;8925;-73
2022/03/18 04:22:23;;;;;;;;;40.75;40.50;;;;;3.17;62.87;101339.78;5055199;28;8996;-71
2022/03/18 04:24:53;;;;;;;;;46.50;41.25;;;;;3.20;62.55;101346.00;5088719;28;8896;-73
2022/03/18 04:27:22;;;;;;;;;42.25;40.00;;;;;3.34;61.43;101346.81;5072011;28;8833;-73
2022/03/18 04:29:50;;;;;;;;;38.25;34.75;;;;;3.35;61.32;101345.13;5054965;28;8850;-72
2022/03/18 04:32:19;;;;;;;;;44.25;32.25;;;;;3.40;60.56;101346.28;5088235;28;9611;-72
2022/03/18 04:34:47;;;;;;;;;46.00;40.50;;;;;3.37;59.83;101347.00;5071434;28;8834;-73
2022/03/18 04:37:16;;;;;;;;;40.25;33.50;;;;;3.34;60.53;101349.38;5088312;28;8861;-73
2022/03/18 04:39:44;;;;;;;;;44.50;35.00;;;;;3.27;60.33;101355.88;5078332;28;8926;-73
2022/03/18 04:42:14;;;;;;;;;43.25;36.25;;;;;3.18;59.91;101365.66;5111443;28;8854;-71
2022/03/18 04:44:43;;;;;;;;;40.50;36.25;;;;;3.27;58.94;101368.78;5075885;28;8858;-72
2022/03/18 04:47:12;;;;;;;;;44.75;43.25;;;;;3.19;59.23;101384.59;5092669;28;8849;-73
2022/03/18 04:49:40;;;;;;;;;40.50;37.50;;;;;3.15;59.27;101382.63;5110873;28;8830;-71
2022/03/18 04:52:09;;;;;;;;;38.75;37.00;;;;;3.19;58.95;101385.47;5110605;28;8854;-73
2022/03/18 04:54:38;;;;;;;;;41.00;35.25;;;;;3.23;58.79;101377.13;5110767;28;8826;-72
2022/03/18 04:57:18;;;;;;;;;38.00;34.00;;;;;3.06;58.84;101388.13;5067497;28;8863;-72
2022/03/18 04:59:51;;;;;;;;;41.75;34.75;;;;;3.11;58.99;101386.72;5034380;28;8987;-73
2022/03/18 05:02:21;;;;;;;;;39.25;36.75;;;;;3.18;58.38;101391.44;5067581;28;8983;-72
2022/03/18 05:04:53;;;;;;;;;6.25;2.00;;;;;3.20;57.95;101401.84;5067894;28;8906;-73
2022/03/18 05:07:22;;;;;;;;;35.50;31.00;;;;;3.17;57.27;101397.38;5087771;28;8859;-71
2022/03/18 05:09:50;;;;;;;;;35.25;30.50;;;;;3.12;57.23;101398.81;5054105;28;8847;-71
2022/03/18 05:12:19;;;;;;;;;45.75;41.75;;;;;3.04;57.52;101405.19;5054692;28;8831;-70
2022/03/18 05:14:55;;;;;;;;;33.50;32.75;;;;;2.98;57.44;101413.44;5039287;28;8932;-72
2022/03/18 05:17:23;;;;;;;;;34.00;31.00;;;;;2.98;57.18;101416.00;5087501;28;8863;-72
2022/03/18 05:19:52;;;;;;;;;36.25;31.25;;;;;2.94;57.73;101424.34;5070832;28;8862;-71
2022/03/18 05:22:21;;;;;;;;;37.00;30.50;;;;;2.98;57.40;101426.31;5087238;28;8859;-72
2022/03/18 05:24:49;;;;;;;;;29.75;28.50;;;;;2.88;57.28;101421.41;5087243;28;8958;-73
2022/03/18 05:27:18;;;;;;;;;36.25;33.00;;;;;2.87;57.41;101427.34;5090459;27;8835;-72
2022/03/18 05:29:47;;;;;;;;;34.25;29.75;;;;;2.78;57.44;101422.56;5130799;27;8878;-70
2022/03/18 05:32:17;;;;;;;;;33.75;28.50;;;;;2.81;56.75;101425.28;5060546;27;9613;-73
2022/03/18 05:34:45;;;;;;;;;33.50;32.00;;;;;2.81;57.24;101424.41;5112251;27;8970;-72
2022/03/18 05:37:14;;;;;;;;;30.75;29.00;;;;;2.75;56.91;101431.78;5130431;27;8944;-72
2022/03/18 05:39:42;;;;;;;;;27.25;26.75;;;;;2.83;56.73;101441.72;5094097;27;8904;-73
2022/03/18 05:42:11;;;;;;;;;38.00;36.25;;;;;2.96;56.30;101437.34;5037272;28;8853;-72
2022/03/18 05:44:40;;;;;;;;;25.75;22.75;;;;;3.13;55.61;101432.38;5086444;28;8855;-73
2022/03/18 05:47:09;;;;;;;;;35.75;32.25;;;;;3.30;54.88;101429.94;5069625;28;8870;-72
2022/03/18 05:49:39;;;;;;;;;41.75;36.75;;;;;3.44;54.88;101431.66;5070219;28;8835;-74
2022/03/18 05:52:09;;;;;;;;;28.00;28.00;;;;;3.53;54.43;101432.97;5069101;28;8894;-72
2022/03/18 05:54:37;;;;;;;;;22.75;22.75;;;;;3.58;54.21;101434.16;5069460;28;8974;-73
2022/03/18 05:57:05;;;;;;;;;30.25;25.75;;;;;3.58;53.82;101436.72;5085587;28;8850;-73
2022/03/18 05:59:35;;;;;;;;;29.75;27.75;;;;;3.65;54.17;101438.88;5069527;28;9612;-72
2022/03/18 06:02:04;;;;;;;;;34.75;32.25;;;;;3.82;53.24;101443.31;5068866;28;8921;-71
2022/03/18 06:04:35;;;;;;;;;36.50;34.00;;;;;3.89;52.83;101444.53;5086457;28;8851;-72
2022/03/18 06:07:06;;;;;;;;;33.00;30.75;;;;;3.93;52.52;101445.59;5086542;28;8839;-70
2022/03/18 06:12:20;;;;;;;;;31.25;29.00;;;;;4.17;51.72;101451.25;5073886;27;8908;-71
2022/03/18 06:14:49;;;;;;;;;37.00;30.50;;;;;4.22;51.52;101448.13;5114037;27;8856;-73
2022/03/18 06:17:18;;;;;;;;;33.75;30.00;;;;;4.19;51.81;101452.22;5113171;27;9001;-72
2022/03/18 06:19:48;;;;;;;;;31.25;27.25;;;;;4.28;51.34;101458.78;5127229;27;8990;-72
2022/03/18 06:22:18;;;;;;;;;36.25;29.75;;;;;4.29;51.15;101464.84;5074642;28;8982;-74
2022/03/18 06:24:46;;;;;;;;;29.25;28.00;;;;;4.40;51.14;101471.50;5109894;28;8858;-72
2022/03/18 06:27:15;;;;;;;;;28.00;26.00;;;;;4.43;50.14;101465.63;5091249;28;8911;-74
2022/03/18 06:29:44;;;;;;;;;29.00;28.50;;;;;4.43;51.39;101470.78;5090356;28;8922;-72
2022/03/18 06:32:12;;;;;;;;;30.50;27.50;;;;;4.48;50.55;101474.53;5056901;28;8850;-71
2022/03/18 06:34:41;;;;;;;;;36.25;34.50;;;;;4.59;50.28;101473.38;5073722;28;8842;-73
2022/03/18 06:37:09;;;;;;;;;38.75;35.00;;;;;4.63;50.69;101480.53;5108668;28;8914;-72
2022/03/18 06:39:40;;;;;;;;;44.50;41.00;;;;;4.69;50.35;101465.34;5073462;28;8854;-73
2022/03/18 06:42:09;;;;;;;;;48.75;42.25;;;;;4.69;50.14;101465.34;5090304;28;9611;-73
2022/03/18 06:44:38;;;;;;;;;44.00;41.25;;;;;4.72;51.62;101472.38;5096672;27;8832;-71
2022/03/18 06:47:08;;;;;;;;;47.75;40.00;;;;;4.81;50.07;101483.22;5110529;27;8844;-72
2022/03/18 06:49:37;;;;;;;;;42.50;38.50;;;;;4.83;50.66;101484.19;5093969;27;8870;-72
2022/03/18 06:52:06;;;;;;;;;38.25;36.25;;;;;4.98;50.40;101488.41;5129135;27;8995;-74
2022/03/18 06:54:35;;;;;;;;;45.75;43.00;;;;;4.99;49.79;101491.09;5093403;27;8874;-74
2022/03/18 06:57:05;;;;;;;;;34.00;32.50;;;;;5.04;50.23;101499.94;5110457;27;8851;-72
2022/03/18 06:59:35;;;;;;;;;45.00;40.25;;;;;4.97;50.44;101490.13;5129586;27;8834;-74
2022/03/18 07:02:05;;;;;;;;;41.50;39.75;;;;;5.00;50.87;101492.84;5128832;27;8993;-73
2022/03/18 07:04:34;;;;;;;;;42.50;34.25;;;;;5.08;50.13;101494.16;5119630;28;8834;-73
2022/03/18 07:07:03;;;;;;;;;47.25;40.50;;;;;5.07;49.59;101499.25;5108239;28;8872;-73
2022/03/18 07:09:31;;;;;;;;;8.00;1.25;;;;;5.19;49.48;101509.34;5076790;28;8841;-73
2022/03/18 07:12:01;;;;;;;;;40.75;37.25;;;;;5.23;49.81;101513.88;5112364;28;8998;-71
2022/03/18 07:14:31;;;;;;;;;36.75;36.50;;;;;5.26;49.29;101514.03;5094165;28;8850;-74
2022/03/18 07:19:46;;;;;;;;;40.25;34.50;;;;;5.20;48.38;101513.72;5112431;28;8858;-72
2022/03/18 07:22:15;;;;;;;;;34.00;28.25;;;;;5.24;48.09;101515.66;5094499;28;8846;-73
2022/03/18 07:24:43;;;;;;;;;36.75;33.25;;;;;5.21;47.42;101531.00;5112542;28;8822;-73
2022/03/18 07:27:12;;;;;;;;;31.00;30.50;;;;;5.27;47.53;101518.38;5112683;28;8854;-74
2022/03/18 07:29:42;;;;;;;;;29.50;25.25;;;;;5.32;47.14;101526.41;5112021;28;8912;-72
2022/03/18 07:32:11;;;;;;;;;26.50;24.25;;;;;5.48;46.75;101526.38;5112045;28;8975;-72
2022/03/18 07:34:40;;;;;;;;;30.25;24.75;;;;;5.51;46.12;101530.84;5112273;28;8980;-73
2022/03/18 07:37:08;;;;;;;;;26.75;26.50;;;;;5.52;44.95;101524.84;5077115;28;8846;-71
2022/03/18 07:39:37;;;;;;;;;31.50;30.25;;;;;5.63;45.92;101541.81;5104335;28;8845;-72
2022/03/18 07:42:06;;;;;;;;;26.50;25.50;;;;;5.67;44.75;101538.56;5093699;28;8861;-72
2022/03/18 07:44:36;;;;;;;;;30.50;29.50;;;;;5.73;44.52;101540.56;5076255;28;8972;-73
2022/03/18 07:47:07;;;;;;;;;29.00;26.00;;;;;5.86;44.48;101546.47;5111791;28;8841;-72
2022/03/18 07:49:35;;;;;;;;;23.75;23.75;;;;;5.98;44.10;101547.94;5075969;28;9561;-72
2022/03/18 07:52:04;;;;;;;;;26.25;25.25;;;;;6.07;43.33;101558.78;5111777;28;8946;-74
2022/03/18 07:54:33;;;;;;;;;27.75;24.50;;;;;6.14;43.47;101550.47;5111754;27;8842;-74
2022/03/18 07:57:02;;;;;;;;;24.50;23.25;;;;;6.19;43.58;101551.59;5093362;28;8872;-73
2022/03/18 07:59:31;;;;;;;;;22.25;20.50;;;;;6.31;41.91;101558.19;5093130;28;8850;-73
2022/03/18 08:01:59;;;;;;;;;23.25;19.50;;;;;6.29;40.70;101550.34;5093715;28;8858;-71
2022/03/18 08:04:29;;;;;;;;;16.25;14.25;;;;;6.34;41.34;101551.47;5112151;28;9045;-73
2022/03/18 08:06:58;;;;;;;;;21.25;18.75;;;;;6.40;40.20;101540.50;5093670;28;8858;-72
2022/03/18 08:09:30;;;;;;;;;20.50;19.25;;;;;6.38;40.72;101555.09;5111294;28;8845;-71
2022/03/18 08:11:59;;;;;;;;;25.75;22.25;;;;;6.30;40.90;101553.84;5111558;28;8849;-72
2022/03/18 08:14:27;;;;;;;;;19.25;18.25;;;;;6.44;41.05;101553.69;5076308;28;8842;-72
2022/03/18 08:16:57;;;;;;;;;23.00;20.75;;;;;6.60;40.88;101557.91;5092894;28;8850;-72
2022/03/18 08:19:26;;;;;;;;;26.75;20.25;;;;;6.76;39.86;101545.69;5110669;28;8862;-73
2022/03/18 08:21:56;;;;;;;;;20.75;19.00;;;;;6.85;39.76;101558.22;5075993;28;8865;-72
2022/03/18 08:24:25;;;;;;;;;21.75;18.25;;;;;6.96;39.60;101560.47;5111297;28;8830;-72
2022/03/18 08:26:54;;;;;;;;;18.50;17.25;;;;;7.09;39.42;101571.41;5111496;28;8842;-72
2022/03/18 08:29:22;;;;;;;;;21.25;17.00;;;;;7.27;39.78;101561.00;5092777;28;8827;-72
2022/03/18 08:31:51;;;;;;;;;25.50;19.25;;;;;7.33;39.18;101559.56;5076002;28;8846;-72
2022/03/18 08:34:21;;;;;;;;;26.00;20.75;;;;;7.31;39.29;101566.38;5110753;28;8971;-73
2022/03/18 08:36:50;;;;;;;;;20.25;20.25;;;;;7.47;39.04;101565.38;5110936;28;8855;-71
2022/03/18 08:39:19;;;;;;;;;18.00;17.00;;;;;7.58;38.43;101573.63;5111393;28;8940;-72
2022/03/18 08:41:48;;;;;;;;;24.50;20.75;;;;;7.68;38.81;101578.41;5110713;27;8846;-71
2022/03/18 08:44:19;;;;;;;;;20.50;17.00;;;;;7.89;38.72;101572.41;5074867;28;8882;-73
2022/03/18 08:46:49;;;;;;;;;26.25;23.00;;;;;7.81;38.33;101578.13;5043984;28;8862;-74
2022/03/18 08:49:17;;;;;;;;;25.50;25.50;;;;;7.98;38.27;101580.59;5110621;28;8924;-72
2022/03/18 08:51:46;;;;;;;;;22.50;22.50;;;;;8.09;38.05;101575.81;5092309;28;8882;-74
2022/03/18 08:54:15;;;;;;;;;26.75;26.00;;;;;8.40;37.96;101578.88;5091953;28;8865;-72
2022/03/18 08:56:45;;;;;;;;;19.75;19.75;;;;;8.56;37.54;101571.72;5092211;28;9555;-74
2022/03/18 08:59:13;;;;;;;;;20.50;20.50;;;;;8.61;36.89;101566.72;5110200;28;8893;-73
2022/03/18 09:01:42;;;;;;;;;20.25;19.75;;;;;8.66;35.63;101566.09;5092309;28;8854;-72
2022/03/18 09:04:11;;;;;;;;;19.50;18.25;;;;;8.69;36.92;101565.31;5110169;28;8850;-74
2022/03/18 09:06:40;;;;;;;;;21.00;21.00;;;;;8.75;36.16;101570.75;5092121;28;8838;-73
2022/03/18 09:09:08;;;;;;;;;21.00;19.50;;;;;8.92;35.23;101571.41;5091981;28;8854;-73
2022/03/18 09:11:37;;;;;;;;;24.50;22.50;;;;;8.95;35.75;101576.75;5075492;28;8846;-71
2022/03/18 09:14:07;;;;;;;;;25.25;22.00;;;;;9.24;35.22;101574.38;5109441;28;8842;-72
2022/03/18 09:16:38;;;;;;;;;25.25;23.25;;;;;9.43;34.51;101574.22;5110056;28;8858;-71
2022/03/18 09:19:07;;;;;;;;;22.50;20.50;;;;;9.57;34.21;101573.00;5057180;28;8896;-73
2022/03/18 09:21:36;;;;;;;;;25.50;22.50;;;;;9.74;34.19;101573.63;5092009;28;8842;-73
2022/03/18 09:24:06;;;;;;;;;17.50;16.25;;;;;9.83;34.78;101585.19;5110003;28;8858;-72
2022/03/18 09:26:34;;;;;;;;;22.00;21.50;;;;;10.05;34.28;101577.28;5092050;28;8941;-74
2022/03/18 09:29:03;;;;;;;;;23.75;22.50;;;;;10.13;34.19;101585.38;5091586;28;8922;-72
2022/03/18 09:31:33;;;;;;;;;24.50;22.00;;;;;10.20;34.33;101589.09;5073852;28;8837;-72
2022/03/18 09:34:02;;;;;;;;;26.25;24.25;;;;;10.08;34.19;101589.56;5091785;28;8861;-73
2022/03/18 09:36:31;;;;;;;;;24.50;21.25;;;;;10.13;34.31;101588.88;5098342;27;8869;-72
2022/03/18 09:39:00;;;;;;;;;27.50;22.75;;;;;10.19;34.24;101593.44;5112047;27;8851;-71
2022/03/18 09:41:30;;;;;;;;;27.25;25.25;;;;;10.33;33.80;101588.69;5129906;27;8831;-71
2022/03/18 09:43:58;;;;;;;;;21.75;21.75;;;;;10.40;34.21;101592.41;5095370;27;8993;-71
2022/03/18 09:46:28;;;;;;;;;23.50;23.00;;;;;10.45;33.47;101594.34;5130061;27;8859;-74
2022/03/18 09:49:02;;;;;;;;;24.50;23.00;;;;;10.40;33.68;101590.69;5111961;27;8832;-74
2022/03/18 09:51:32;;;;;;;;;23.50;20.50;;;;;10.43;33.72;101597.72;5111889;27;8863;-74
2022/03/18 09:54:28;;;;;;;;;21.75;21.75;;;;;10.64;32.76;101595.81;5112574;27;8845;-73
2022/03/18 09:56:58;;;;;;;;;25.75;23.00;;;;;10.79;33.14;101595.41;5109688;28;8865;-73
2022/03/18 09:59:28;;;;;;;;;23.75;21.50;;;;;10.73;33.09;101584.78;5109342;28;8907;-72
2022/03/18 10:02:26;;;;;;;;;27.75;23.75;;;;;10.52;32.99;101598.00;5091138;28;8854;-73
2022/03/18 10:04:58;;;;;;;;;21.75;19.50;;;;;10.46;33.36;101601.31;5090935;28;8870;-72
2022/03/18 10:07:28;;;;;;;;;26.50;22.25;;;;;10.62;33.15;101596.59;5090958;28;8838;-72
2022/03/18 10:10:05;;;;;;;;;24.75;21.00;;;;;10.74;33.08;101599.59;5109261;28;8862;-71
2022/03/18 10:12:35;;;;;;;;;28.00;24.00;;;;;10.89;33.34;101602.69;5108809;28;8876;-74
2022/03/18 10:15:06;;;;;;;;;28.25;24.25;;;;;11.10;31.98;101596.38;5090789;28;8870;-73
2022/03/18 10:17:40;;;;;;;;;29.00;24.25;;;;;11.17;31.71;101595.72;5108828;28;8845;-71
2022/03/18 10:20:24;;;;;;;;;22.50;20.00;;;;;11.23;31.50;101595.03;5108322;28;8864;-74
2022/03/18 10:22:53;;;;;;;;;30.50;26.25;;;;;11.32;31.99;101592.66;5090630;28;8846;-72
2022/03/18 10:25:40;;;;;;;;;22.50;19.25;;;;;11.29;32.54;101600.41;5090515;28;8931;-70
2022/03/18 10:28:11;;;;;;;;;19.50;18.00;;;;;11.20;31.94;101597.53;5108569;28;8850;-74
2022/03/18 10:30:39;;;;;;;;;22.00;21.00;;;;;11.31;32.10;101603.97;5090629;28;8968;-74
2022/03/18 10:33:13;;;;;;;;;23.25;21.25;;;;;11.36;31.02;101598.84;5042420;28;8870;-72
2022/03/18 10:38:33;;;;;;;;;24.25;24.25;;;;;11.66;30.61;101601.47;5090133;28;8922;-74
2022/03/18 10:41:07;;;;;;;;;24.25;21.75;;;;;11.61;29.83;101603.09;5109173;28;8857;-72
2022/03/18 10:43:51;;;;;;;;;22.75;21.50;;;;;11.43;30.58;101601.69;5089909;28;8875;-75
2022/03/18 10:46:21;;;;;;;;;24.50;22.75;;;;;11.45;29.67;101602.63;5025877;28;8873;-73
2022/03/18 10:49:08;;;;;;;;;23.50;19.00;;;;;11.58;29.34;101601.25;5020126;28;8842;-72
2022/03/18 10:51:38;;;;;;;;;21.25;20.75;;;;;11.52;30.11;101616.75;5045039;28;8976;-73
2022/03/18 10:54:09;;;;;;;;;24.25;22.00;;;;;11.63;29.49;101604.00;5045418;28;9600;-75
2022/03/18 10:56:53;;;;;;;;;22.00;18.50;;;;;11.71;27.80;101602.50;5028534;28;8846;-71
2022/03/18 10:59:26;;;;;;;;;24.00;21.75;;;;;11.65;29.76;101599.72;5028461;28;8834;-72
2022/03/18 11:02:00;;;;;;;;;23.25;23.25;;;;;11.49;28.88;101604.50;5045188;28;8841;-73
2022/03/18 11:04:30;;;;;;;;;20.50;20.00;;;;;11.65;28.47;101605.81;5008680;28;8836;-72
2022/03/18 11:12:37;;;;;;;;;21.25;20.50;;;;;11.64;29.02;101596.19;5025110;28;8871;-72
2022/03/18 11:15:08;;;;;;;;;26.00;25.00;;;;;11.94;27.53;101591.81;4992912;28;8848;-72
2022/03/18 11:17:39;;;;;;;;;25.00;21.50;;;;;11.88;26.54;101582.03;5025098;28;8945;-72
2022/03/18 11:20:11;;;;;;;;;22.25;21.00;;;;;11.61;28.05;101592.63;5025610;28;8848;-71
2022/03/18 11:22:41;;;;;;;;;21.00;21.00;;;;;11.56;28.58;101589.00;5045319;27;8830;-73
2022/03/18 11:25:11;;;;;;;;;24.00;21.75;;;;;11.43;27.62;101586.00;5128943;27;8860;-72
2022/03/18 11:27:41;;;;;;;;;26.25;24.00;;;;;11.67;27.31;101577.13;5093222;27;8939;-73
2022/03/18 11:30:23;;;;;;;;;22.00;22.00;;;;;11.47;27.07;101587.00;5110292;27;8828;-73
2022/03/18 11:33:20;;;;;;;;;22.75;21.00;;;;;11.52;28.27;101593.25;5089910;28;8992;-73
2022/03/18 11:36:09;;;;;;;;;21.75;21.50;;;;;11.67;28.33;101591.06;4956633;28;8939;-74
2022/03/18 11:39:07;;;;;;;;;25.25;22.50;;;;;11.68;27.22;101582.38;4989910;28;8936;-72
2022/03/18 11:41:48;;;;;;;;;25.33;22.33;;;;;11.83;27.72;101575.78;5005136;28;8913;-74
2022/03/18 11:44:38;;;;;;;;;25.50;24.00;;;;;11.91;27.95;101571.72;4972658;28;8851;-71
2022/03/18 11:47:45;;;;;;;;;22.25;20.75;;;;;11.97;27.96;101573.59;4954133;28;8827;-73
2022/03/18 11:50:49;;;;;;;;;22.25;22.25;;;;;11.93;27.14;101564.78;4889267;29;8899;-74
2022/03/18 11:53:47;;;;;;;;;23.00;21.00;;;;;11.97;27.26;101561.41;4874732;29;8856;-72
2022/03/18 11:56:19;;;;;;;;;22.50;22.50;;;;;12.09;27.30;101556.47;4877262;29;8855;-72
2022/03/18 11:58:49;;;;;;;;;29.75;29.50;;;;;12.11;26.67;101550.41;4877946;29;8955;-73
2022/03/18 12:01:39;;;;;;;;;33.50;28.75;;;;;12.19;26.57;101543.63;4893204;29;8998;-74